createdAt,value
2023-04-27T00:00:00.972Z,3.50
2023-04-27T00:02:30.337Z,3.83
2023-04-27T00:04:58.847Z,4.03
2023-04-27T00:07:27.345Z,3.30
2023-04-27T00:09:55.385Z,3.33
2023-04-27T00:12:23.449Z,3.80
2023-04-27T00:14:51.698Z,3.20
2023-04-27T00:17:19.734Z,4.10
2023-04-27T00:19:49.177Z,3.90
2023-04-27T00:22:17.053Z,3.93
2023-04-27T00:24:45.298Z,3.43
2023-04-27T00:27:13.704Z,3.53
2023-04-27T00:29:42.737Z,3.70
2023-04-27T00:32:11.354Z,3.67
2023-04-27T00:34:39.944Z,3.07
2023-04-27T00:37:10.003Z,3.50
2023-04-27T00:39:37.949Z,3.60
2023-04-27T00:42:06.565Z,3.43
2023-04-27T00:44:34.452Z,2.93
2023-04-27T00:47:02.476Z,3.20
2023-04-27T00:49:30.877Z,3.37
2023-04-27T00:51:59.089Z,2.97
2023-04-27T00:54:28.584Z,3.07
2023-04-27T00:56:56.633Z,3.13
2023-04-27T00:59:25.323Z,3.60
2023-04-27T01:01:55.212Z,2.70
2023-04-27T01:04:23.597Z,3.50
2023-04-27T01:06:51.724Z,2.40
2023-04-27T01:09:20.324Z,2.60
2023-04-27T01:11:49.618Z,3.17
2023-04-27T01:14:17.794Z,3.03
2023-04-27T01:16:46.596Z,3.40
2023-04-27T01:19:15.076Z,3.00
2023-04-27T01:21:43.232Z,3.23
2023-04-27T01:24:12.936Z,3.30
2023-04-27T01:26:40.813Z,3.23
2023-04-27T01:29:08.772Z,2.83
2023-04-27T01:31:36.888Z,3.17
2023-04-27T01:34:04.884Z,3.30
2023-04-27T01:36:33.138Z,3.47
2023-04-27T01:39:01.372Z,2.57
2023-04-27T01:41:30.808Z,2.90
2023-04-27T01:43:58.700Z,4.03
2023-04-27T01:46:26.867Z,3.40
2023-04-27T01:48:54.864Z,3.40
2023-04-27T01:51:23.000Z,3.10
2023-04-27T01:53:51.044Z,3.33
2023-04-27T01:56:18.917Z,3.40
2023-04-27T01:58:48.198Z,3.47
2023-04-27T02:01:16.437Z,3.20
2023-04-27T02:03:44.469Z,2.90
2023-04-27T02:06:12.966Z,2.93
2023-04-27T02:08:41.110Z,3.40
2023-04-27T02:11:09.183Z,2.97
2023-04-27T02:13:37.056Z,3.23
2023-04-27T02:16:06.982Z,3.70
2023-04-27T02:18:36.358Z,3.80
2023-04-27T02:21:09.724Z,3.97
2023-04-27T02:23:37.987Z,3.43
2023-04-27T02:26:06.100Z,3.63
2023-04-27T02:28:34.016Z,3.70
2023-04-27T02:31:03.258Z,3.87
2023-04-27T02:33:32.974Z,3.40
2023-04-27T02:36:00.853Z,3.63
2023-04-27T02:38:30.957Z,3.53
2023-04-27T02:40:58.839Z,3.90
2023-04-27T02:43:26.766Z,4.30
2023-04-27T02:45:54.993Z,4.00
2023-04-27T02:48:22.909Z,4.20
2023-04-27T02:50:52.293Z,4.53
2023-04-27T02:53:20.201Z,4.63
2023-04-27T02:55:49.240Z,5.17
2023-04-27T02:58:17.522Z,4.37
2023-04-27T03:00:45.483Z,6.00
2023-04-27T03:03:13.843Z,4.07
2023-04-27T03:05:41.965Z,4.60
2023-04-27T03:08:11.394Z,4.40
2023-04-27T03:10:39.288Z,4.50
2023-04-27T03:13:07.808Z,4.80
2023-04-27T03:15:36.375Z,4.87
2023-04-27T03:18:04.609Z,4.87
2023-04-27T03:20:32.558Z,5.30
2023-04-27T03:23:00.694Z,4.50
2023-04-27T03:25:30.058Z,4.77
2023-04-27T03:27:58.094Z,5.83
2023-04-27T03:30:25.991Z,5.60
2023-04-27T03:32:54.561Z,4.40
2023-04-27T03:35:22.719Z,5.10
2023-04-27T03:37:50.770Z,5.27
2023-04-27T03:40:18.806Z,4.97
2023-04-27T03:42:48.245Z,5.40
2023-04-27T03:45:18.657Z,4.67
2023-04-27T03:47:46.635Z,6.00
2023-04-27T03:50:14.557Z,4.87
2023-04-27T03:52:42.645Z,5.10
2023-04-27T03:55:10.850Z,5.13
2023-04-27T03:57:38.885Z,4.60
2023-04-27T04:00:12.219Z,5.07
2023-04-27T04:02:40.557Z,5.00
2023-04-27T04:05:09.280Z,5.03
2023-04-27T04:07:37.561Z,5.13
2023-04-27T04:10:06.128Z,5.63
2023-04-27T04:12:34.044Z,5.37
2023-04-27T04:15:02.250Z,4.93
2023-04-27T04:17:33.854Z,5.57
2023-04-27T04:20:02.099Z,5.00
2023-04-27T04:22:30.028Z,4.30
2023-04-27T04:24:57.913Z,5.03
2023-04-27T04:27:26.440Z,4.30
2023-04-27T04:29:55.461Z,4.90
2023-04-27T04:32:23.762Z,4.60
2023-04-27T04:34:53.318Z,4.30
2023-04-27T04:37:21.908Z,4.40
2023-04-27T04:39:49.869Z,4.70
2023-04-27T04:42:17.781Z,5.00
2023-04-27T04:44:45.982Z,5.10
2023-04-27T04:47:13.934Z,4.77
2023-04-27T04:49:42.015Z,4.83
2023-04-27T04:52:11.426Z,5.10
2023-04-27T04:54:39.458Z,5.03
2023-04-27T04:57:07.721Z,5.07
2023-04-27T04:59:35.990Z,5.40
2023-04-27T05:02:04.231Z,5.13
2023-04-27T05:04:32.750Z,5.90
2023-04-27T05:07:01.219Z,5.90
2023-04-27T05:09:30.639Z,4.33
2023-04-27T05:11:58.577Z,5.33
2023-04-27T05:14:26.526Z,4.20
2023-04-27T05:16:54.920Z,4.63
2023-04-27T05:19:22.963Z,4.70
2023-04-27T05:21:51.074Z,4.50
2023-04-27T05:24:19.648Z,3.90
2023-04-27T05:26:49.007Z,4.07
2023-04-27T05:29:17.254Z,5.33
2023-04-27T05:31:45.538Z,5.30
2023-04-27T05:34:13.464Z,4.20
2023-04-27T05:36:41.462Z,4.80
2023-04-27T05:39:09.571Z,4.00
2023-04-27T05:41:37.632Z,4.40
2023-04-27T05:44:07.153Z,4.53
2023-04-27T05:46:37.908Z,4.17
2023-04-27T05:49:07.094Z,3.90
2023-04-27T05:51:35.201Z,4.70
2023-04-27T05:54:03.386Z,4.40
2023-04-27T05:56:31.305Z,3.80
2023-04-27T05:59:01.215Z,5.50
2023-04-27T06:01:32.099Z,4.77
2023-04-27T06:04:02.024Z,4.70
2023-04-27T06:06:32.895Z,5.10
2023-04-27T06:09:01.021Z,5.17
2023-04-27T06:11:29.187Z,5.40
2023-04-27T06:13:57.259Z,5.93
2023-04-27T06:16:25.475Z,5.33
2023-04-27T06:18:54.706Z,4.53
2023-04-27T06:21:22.612Z,5.70
2023-04-27T06:23:50.995Z,6.07
2023-04-27T06:26:19.051Z,5.70
2023-04-27T06:28:47.125Z,6.07
2023-04-27T06:31:15.503Z,5.73
2023-04-27T06:33:43.405Z,5.00
2023-04-27T06:36:12.719Z,6.77
2023-04-27T06:38:40.894Z,6.57
2023-04-27T06:41:08.848Z,7.17
2023-04-27T06:43:37.030Z,5.97
2023-04-27T06:46:05.654Z,6.43
2023-04-27T06:48:33.699Z,5.03
2023-04-27T06:51:01.808Z,6.17
2023-04-27T06:53:32.154Z,6.33
2023-04-27T06:56:00.286Z,5.33
2023-04-27T06:58:28.396Z,6.03
2023-04-27T07:00:56.332Z,6.00
2023-04-27T07:03:24.410Z,5.80
2023-04-27T07:05:53.129Z,5.57
2023-04-27T07:08:21.039Z,4.83
2023-04-27T07:10:51.081Z,5.50
2023-04-27T07:13:19.001Z,4.70
2023-04-27T07:15:47.027Z,5.67
2023-04-27T07:18:15.146Z,4.20
2023-04-27T07:20:43.355Z,3.70
2023-04-27T07:23:11.473Z,4.57
2023-04-27T07:25:40.508Z,4.47
2023-04-27T07:28:10.098Z,4.63
2023-04-27T07:30:38.688Z,4.10
2023-04-27T07:33:07.497Z,4.33
2023-04-27T07:35:35.542Z,4.03
2023-04-27T07:38:03.902Z,3.93
2023-04-27T07:40:32.780Z,4.00
2023-04-27T07:43:00.862Z,4.57
2023-04-27T07:45:33.086Z,4.17
2023-04-27T07:48:04.151Z,4.07
2023-04-27T07:50:33.222Z,4.70
2023-04-27T07:53:01.854Z,3.90
2023-04-27T07:55:29.934Z,4.00
2023-04-27T07:57:58.359Z,4.43
2023-04-27T08:00:27.933Z,3.73
2023-04-27T08:02:57.680Z,4.60
2023-04-27T08:05:26.324Z,3.30
2023-04-27T08:07:54.885Z,4.13
2023-04-27T08:10:23.475Z,4.50
2023-04-27T08:12:51.606Z,3.83
2023-04-27T08:15:19.841Z,4.40
2023-04-27T08:17:48.308Z,4.80
2023-04-27T08:20:18.022Z,4.33
2023-04-27T08:22:46.222Z,3.93
2023-04-27T08:25:14.138Z,3.97
2023-04-27T08:27:42.654Z,3.10
2023-04-27T08:30:11.927Z,4.13
2023-04-27T08:32:40.597Z,3.97
2023-04-27T08:35:08.879Z,4.20
2023-04-27T08:37:38.230Z,4.17
2023-04-27T08:40:08.308Z,3.83
2023-04-27T08:42:36.520Z,4.00
2023-04-27T08:45:08.423Z,3.60
2023-04-27T08:47:43.413Z,3.70
2023-04-27T08:50:12.893Z,4.67
2023-04-27T08:52:44.770Z,3.80
2023-04-27T08:55:15.721Z,3.67
2023-04-27T08:57:56.023Z,4.17
2023-04-27T09:00:26.003Z,4.20
2023-04-27T09:02:54.432Z,3.85
2023-04-27T09:05:23.987Z,4.17
2023-04-27T09:08:01.503Z,4.00
2023-04-27T09:10:30.095Z,3.80
2023-04-27T09:12:59.673Z,4.40
2023-04-27T09:15:28.385Z,3.90
2023-04-27T09:17:57.570Z,3.50
2023-04-27T09:20:27.023Z,3.80
2023-04-27T09:22:58.734Z,3.90
2023-04-27T09:25:29.636Z,3.53
2023-04-27T09:27:58.562Z,3.40
2023-04-27T09:30:27.006Z,2.73
2023-04-27T09:32:57.377Z,2.97
2023-04-27T09:35:27.158Z,3.07
2023-04-27T09:37:56.433Z,3.47
2023-04-27T09:40:28.131Z,2.97
2023-04-27T09:42:58.797Z,2.60
2023-04-27T09:45:27.226Z,3.42
2023-04-27T09:47:55.445Z,3.00
2023-04-27T09:50:23.433Z,3.33
2023-04-27T09:52:51.663Z,2.90
2023-04-27T09:55:25.700Z,3.30
2023-04-27T09:58:06.239Z,2.47
2023-04-27T10:00:48.516Z,3.00
2023-04-27T10:03:24.650Z,3.17
2023-04-27T10:06:32.493Z,3.03
2023-04-27T10:09:05.243Z,2.33
2023-04-27T10:11:41.398Z,2.50
2023-04-27T10:14:17.817Z,2.50
2023-04-27T10:16:47.644Z,2.40
2023-04-27T10:19:15.918Z,2.60
2023-04-27T10:21:59.159Z,2.67
2023-04-27T10:24:36.725Z,2.60
2023-04-27T10:27:06.918Z,2.60
2023-04-27T10:29:40.554Z,3.20
2023-04-27T10:32:09.695Z,2.07
2023-04-27T10:34:38.868Z,2.43
2023-04-27T10:37:08.288Z,2.57
2023-04-27T10:39:48.031Z,2.57
2023-04-27T10:42:28.620Z,2.60
2023-04-27T10:44:59.690Z,2.70
2023-04-27T10:47:38.657Z,3.00
2023-04-27T10:50:11.465Z,2.30
2023-04-27T10:52:42.095Z,3.40
2023-04-27T10:55:27.802Z,2.40
2023-04-27T10:57:57.374Z,2.30
2023-04-27T11:00:28.801Z,2.05
2023-04-27T11:02:58.253Z,2.53
2023-04-27T11:05:30.531Z,2.40
2023-04-27T11:08:08.697Z,2.30
2023-04-27T11:10:39.414Z,1.80
2023-04-27T11:13:12.511Z,2.77
2023-04-27T11:15:49.854Z,2.67
2023-04-27T11:18:19.073Z,2.30
2023-04-27T11:20:49.448Z,3.40
2023-04-27T11:23:28.005Z,2.97
2023-04-27T11:25:56.395Z,2.60
2023-04-27T11:28:25.300Z,2.70
2023-04-27T11:31:01.635Z,2.70
2023-04-27T11:33:29.729Z,2.63
2023-04-27T11:35:58.152Z,2.50
2023-04-27T11:38:27.744Z,2.60
2023-04-27T11:41:03.780Z,2.70
2023-04-27T11:43:32.251Z,2.57
2023-04-27T11:46:04.106Z,2.43
2023-04-27T11:48:32.125Z,2.43
2023-04-27T11:51:01.612Z,2.20
2023-04-27T11:53:34.496Z,2.47
2023-04-27T11:56:05.139Z,2.10
2023-04-27T11:58:34.839Z,2.87
2023-04-27T12:01:04.480Z,2.30
2023-04-27T12:03:32.969Z,2.50
2023-04-27T12:06:21.657Z,2.57
2023-04-27T12:08:49.643Z,3.40
2023-04-27T12:11:17.994Z,3.40
2023-04-27T12:13:47.114Z,2.70
2023-04-27T12:16:16.702Z,3.07
2023-04-27T12:18:44.724Z,2.50
2023-04-27T12:21:13.189Z,2.77
2023-04-27T12:23:41.268Z,2.90
2023-04-27T12:26:09.265Z,2.13
2023-04-27T12:28:38.904Z,2.00
2023-04-27T12:31:08.238Z,2.90
2023-04-27T12:33:37.769Z,3.00
2023-04-27T12:36:05.795Z,2.60
2023-04-27T12:38:34.014Z,2.27
2023-04-27T12:41:03.412Z,2.47
2023-04-27T12:43:36.689Z,2.10
2023-04-27T12:46:05.269Z,2.50
2023-04-27T12:48:33.530Z,2.70
2023-04-27T12:51:04.458Z,2.90
2023-04-27T12:53:32.783Z,2.40
2023-04-27T12:56:02.066Z,2.50
2023-04-27T12:58:30.641Z,2.20
2023-04-27T13:00:59.085Z,1.97
2023-04-27T13:03:27.359Z,2.10
2023-04-27T13:05:55.466Z,2.23
2023-04-27T13:08:24.982Z,2.50
2023-04-27T13:10:52.887Z,2.13
2023-04-27T13:13:21.137Z,1.70
2023-04-27T13:15:50.633Z,2.20
2023-04-27T13:18:18.818Z,1.83
2023-04-27T13:20:48.375Z,2.40
2023-04-27T13:23:16.645Z,2.03
2023-04-27T13:34:24.513Z,2.23
2023-04-27T13:36:52.413Z,2.47
2023-04-27T13:39:21.967Z,1.90
2023-04-27T13:41:51.418Z,2.30
2023-04-27T13:44:20.221Z,2.00
2023-04-27T14:17:30.302Z,2.17
2023-04-27T14:19:58.235Z,1.80
2023-04-27T14:22:26.183Z,1.83
2023-04-27T14:24:56.428Z,1.40
2023-04-27T14:27:24.686Z,2.13
2023-04-27T14:29:54.231Z,1.93
2023-04-27T14:32:22.509Z,3.30
2023-04-27T14:34:50.682Z,3.07
2023-04-27T14:37:18.794Z,1.93
2023-04-27T14:39:47.201Z,1.83
2023-04-27T14:42:15.345Z,1.63
2023-04-27T14:44:43.365Z,1.80
2023-04-27T14:50:05.494Z,2.37
2023-04-27T14:58:05.679Z,2.23
2023-04-27T15:00:33.788Z,1.80
2023-04-27T15:03:03.394Z,2.83
2023-04-27T15:05:31.732Z,2.40
2023-04-27T15:07:59.832Z,2.00
2023-04-27T15:10:27.973Z,1.90
2023-04-27T15:12:56.040Z,1.87
2023-04-27T15:15:24.029Z,1.63
2023-04-27T15:17:52.237Z,2.07
2023-04-27T15:20:21.738Z,2.40
2023-04-27T15:22:49.744Z,1.60
2023-04-27T15:25:17.851Z,1.67
2023-04-27T15:27:45.767Z,2.23
2023-04-27T15:30:15.102Z,2.43
2023-04-27T15:32:43.242Z,2.27
2023-04-27T15:35:11.453Z,1.93
2023-04-27T15:37:41.774Z,1.93
2023-04-27T15:40:10.952Z,1.67
2023-04-27T15:42:39.041Z,2.00
2023-04-27T15:45:09.758Z,1.90
2023-04-27T15:47:38.133Z,2.43
2023-04-27T15:50:07.998Z,1.90
2023-04-27T15:52:36.110Z,1.60
2023-04-27T15:55:06.098Z,2.17
2023-04-27T15:57:34.064Z,2.23
2023-04-27T16:00:02.170Z,1.80
2023-04-27T16:02:30.543Z,2.30
2023-04-27T16:04:58.580Z,2.40
2023-04-27T16:07:26.542Z,1.90
2023-04-27T16:09:54.588Z,1.77
2023-04-27T16:12:23.972Z,2.07
2023-04-27T16:14:57.024Z,2.23
2023-04-27T16:17:25.109Z,2.20
2023-04-27T16:19:53.153Z,2.33
2023-04-27T16:22:21.204Z,2.07
2023-04-27T16:24:49.339Z,2.00
2023-04-27T16:27:20.546Z,1.85
2023-04-27T16:29:49.913Z,1.92
2023-04-27T16:32:24.500Z,1.60
2023-04-27T16:34:52.559Z,2.37
2023-04-27T16:37:20.452Z,2.40
2023-04-27T16:45:34.927Z,2.70
2023-04-27T16:48:03.385Z,2.67
2023-04-27T16:50:33.372Z,2.57
2023-04-27T16:53:07.869Z,2.87
2023-04-27T16:55:36.062Z,2.50
2023-04-27T16:58:04.015Z,2.90
2023-04-27T17:00:35.976Z,2.00
2023-04-27T17:03:05.916Z,3.20
2023-04-27T17:05:34.056Z,2.50
2023-04-27T17:08:04.259Z,2.60
2023-04-27T17:10:33.298Z,2.20
2023-04-27T17:13:01.271Z,2.60
2023-04-27T17:15:29.269Z,2.33
2023-04-27T17:17:57.375Z,1.83
2023-04-27T17:20:26.635Z,2.20
2023-04-27T17:22:54.593Z,2.87
2023-04-27T17:25:22.751Z,2.60
2023-04-27T17:27:50.761Z,2.05
2023-04-27T17:30:18.673Z,2.53
2023-04-27T17:32:46.647Z,2.42
2023-04-27T17:35:14.673Z,2.17
2023-04-27T17:37:44.658Z,2.33
2023-04-27T17:40:13.915Z,2.13
2023-04-27T17:42:41.827Z,2.50
2023-04-27T17:45:11.533Z,2.00
2023-04-27T17:47:39.529Z,2.40
2023-04-27T17:50:09.049Z,2.40
2023-04-27T17:52:37.526Z,2.60
2023-04-27T17:55:07.461Z,2.53
2023-04-27T17:57:35.335Z,2.53
2023-04-27T18:00:03.295Z,2.60
2023-04-27T18:02:31.346Z,2.50
2023-04-27T18:04:59.299Z,2.50
2023-04-27T18:07:27.204Z,2.40
2023-04-27T18:09:56.508Z,2.70
2023-04-27T18:12:26.366Z,2.30
2023-04-27T18:14:54.408Z,3.63
2023-04-27T18:17:22.415Z,2.50
2023-04-27T18:20:00.904Z,3.30
2023-04-27T18:22:36.254Z,2.50
2023-04-27T18:25:04.475Z,2.60
2023-04-27T18:27:33.873Z,3.07
2023-04-27T18:30:01.831Z,2.70
2023-04-27T18:32:30.000Z,3.33
2023-04-27T18:34:58.078Z,2.67
2023-04-27T18:37:29.137Z,2.33
2023-04-27T18:39:57.123Z,3.47
2023-04-27T18:42:25.354Z,3.20
2023-04-27T18:44:55.619Z,3.77
2023-04-27T18:47:23.554Z,3.60
2023-04-27T18:49:52.058Z,3.00
2023-04-27T18:52:20.004Z,4.77
2023-04-27T18:54:47.902Z,3.33
2023-04-27T18:57:16.010Z,3.83
2023-04-27T18:59:43.948Z,3.03
2023-04-27T19:02:13.184Z,3.20
2023-04-27T19:04:45.451Z,3.07
2023-04-27T19:07:25.791Z,3.30
2023-04-27T19:09:55.170Z,3.37
2023-04-27T19:12:24.412Z,3.67
2023-04-27T19:14:52.871Z,3.33
2023-04-27T19:17:22.428Z,3.43
2023-04-27T19:19:50.530Z,3.20
2023-04-27T19:22:18.480Z,3.17
2023-04-27T19:24:46.388Z,2.83
2023-04-27T19:27:14.268Z,3.10
2023-04-27T19:29:51.723Z,3.80
2023-04-27T19:32:20.577Z,4.27
2023-04-27T19:34:49.925Z,2.63
2023-04-27T19:37:19.148Z,3.87
2023-04-27T19:39:47.065Z,3.20
2023-04-27T19:42:15.184Z,3.73
2023-04-27T19:44:43.190Z,3.77
2023-04-27T19:47:11.769Z,2.87
2023-04-27T19:49:40.149Z,3.27
2023-04-27T19:52:09.695Z,3.40
2023-04-27T19:54:38.248Z,3.27
2023-04-27T19:57:06.581Z,3.80
2023-04-27T19:59:34.644Z,3.50
2023-04-27T20:02:02.681Z,3.20
2023-04-27T20:04:30.780Z,3.60
2023-04-27T20:06:58.894Z,3.93
2023-04-27T20:09:28.298Z,3.77
2023-04-27T20:11:56.631Z,3.27
2023-04-27T20:14:24.914Z,3.50
2023-04-27T20:16:53.062Z,3.90
2023-04-27T20:19:22.594Z,4.90
2023-04-27T20:21:50.861Z,3.80
2023-04-27T20:24:19.049Z,3.90
2023-04-27T20:26:48.316Z,3.90
2023-04-27T20:29:16.267Z,3.80
2023-04-27T20:31:45.008Z,4.23
2023-04-27T20:34:13.189Z,4.00
2023-04-27T20:36:41.444Z,4.10
2023-04-27T20:39:12.196Z,3.70
2023-04-27T20:41:41.921Z,3.63
2023-04-27T20:44:11.765Z,3.50
2023-04-27T20:46:39.766Z,3.80
2023-04-27T20:49:07.677Z,4.00
2023-04-27T20:57:20.050Z,4.30
2023-04-27T20:59:49.351Z,3.70
2023-04-27T21:02:17.295Z,3.60
2023-04-27T21:04:45.432Z,4.07
2023-04-27T21:07:13.437Z,5.07
2023-04-27T21:09:41.587Z,3.90
2023-04-27T21:12:10.036Z,3.67
2023-04-27T21:14:37.939Z,4.67
2023-04-27T21:17:07.437Z,3.80
2023-04-27T21:19:35.756Z,4.33
2023-04-27T21:22:04.569Z,4.30
2023-04-27T21:24:32.483Z,4.63
2023-04-27T21:27:00.533Z,4.40
2023-04-27T21:29:28.873Z,5.17
2023-04-27T21:31:56.788Z,4.77
2023-04-27T21:34:26.100Z,4.40
2023-04-27T21:36:54.059Z,4.43
2023-04-27T21:39:22.021Z,4.53
2023-04-27T21:41:49.984Z,3.90
2023-04-27T21:44:18.039Z,4.27
2023-04-27T21:46:46.194Z,4.60
2023-04-27T21:49:14.573Z,4.33
2023-04-27T21:51:43.972Z,3.40
2023-04-27T21:54:12.243Z,5.20
2023-04-27T21:56:40.378Z,3.73
2023-04-27T21:59:08.373Z,4.63
2023-04-27T22:01:37.012Z,4.43
2023-04-27T22:04:08.002Z,4.03
2023-04-27T22:06:36.107Z,4.27
2023-04-27T22:09:07.832Z,4.10
2023-04-27T22:11:36.079Z,3.80
2023-04-27T22:14:04.040Z,4.20
2023-04-27T22:16:32.210Z,4.10
2023-04-27T22:19:01.272Z,3.67
2023-04-27T22:21:29.472Z,4.17
2023-04-27T22:23:57.426Z,4.40
2023-04-27T22:26:26.840Z,4.20
2023-04-27T22:28:54.904Z,4.97
2023-04-27T22:31:23.006Z,4.35
2023-04-27T22:33:51.181Z,4.40
2023-04-27T22:36:19.214Z,4.10
2023-04-27T22:38:47.139Z,3.60
2023-04-27T22:41:15.075Z,3.70
2023-04-27T22:43:44.466Z,3.90
2023-04-27T22:46:12.753Z,3.63
2023-04-27T22:48:41.004Z,4.50
2023-04-27T22:51:09.917Z,3.40
2023-04-27T22:53:37.872Z,4.57
2023-04-27T22:56:06.572Z,3.33
2023-04-27T22:58:35.270Z,4.07
2023-04-27T23:01:05.170Z,4.10
2023-04-27T23:03:33.505Z,3.87
2023-04-27T23:06:01.895Z,3.30
2023-04-27T23:08:29.890Z,3.80
2023-04-27T23:10:58.083Z,3.83
2023-04-27T23:13:26.765Z,3.60
2023-04-27T23:15:55.267Z,3.83
2023-04-27T23:18:24.618Z,2.87
2023-04-27T23:20:55.152Z,3.53
2023-04-27T23:23:23.188Z,3.27
2023-04-27T23:25:51.142Z,2.83
2023-04-27T23:28:19.342Z,3.40
2023-04-27T23:30:53.874Z,2.73
2023-04-27T23:33:22.034Z,3.20
2023-04-27T23:35:51.594Z,2.27
2023-04-27T23:38:19.539Z,2.50
2023-04-27T23:40:47.528Z,3.33
2023-04-27T23:43:15.870Z,2.87
2023-04-27T23:45:44.100Z,2.80
2023-04-27T23:48:12.057Z,3.43
2023-04-27T23:50:40.019Z,2.80
2023-04-27T23:53:09.513Z,2.50
2023-04-27T23:55:37.800Z,3.07
2023-04-27T23:58:05.796Z,2.80
